Huntingdon Valley, Pennsylvania
Current Conditions -  °F | °C
As of 3:21 AM on Monday 24 Nov 2014 (Local Time) from KPNE Reporting Station
Light Rain Light Rain  
Wind Chill: 63°   Ceiling: 1000
Heat Index: 63°   Visibility: 5mi
Dew Point: 58°   Wind: 10mph
Humidity: 84%   Direction: 160°SSE
Pressure: 29.74"   Gusts: 23mph
Location:  40.12°N, 75.06°W
Report Text: KPNE 240821Z AUTO 16009G20KT 5SM -RA OVC010 17/14 A2974 RMK AO2 CIG 006V013 P0006 T01720144 TSNO
Loading
Personal Weather Stations






























Interactive Weather Map New forecast layout! Learn more

10-Day Weather Forecast

Advertisements
Track Severe Weather on mobile